sensor_id;sensor_type;location;lat;lon;timestamp;P1;durP1;ratioP1;P2;durP2;ratioP2
50555;SDS011;36508;52.512;13.450;2022-11-20T00:00:34;16.17;;;14.30;;
50555;SDS011;36508;52.512;13.450;2022-11-20T00:03:00;16.83;;;14.60;;
50555;SDS011;36508;52.512;13.450;2022-11-20T00:05:25;18.00;;;15.67;;
50555;SDS011;36508;52.512;13.450;2022-11-20T00:07:51;19.33;;;13.70;;
50555;SDS011;36508;52.512;13.450;2022-11-20T00:10:16;18.57;;;14.00;;
50555;SDS011;36508;52.512;13.450;2022-11-20T00:12:42;14.53;;;13.03;;
50555;SDS011;36508;52.512;13.450;2022-11-20T00:15:08;19.60;;;14.53;;
50555;SDS011;36508;52.512;13.450;2022-11-20T00:17:35;16.37;;;14.53;;
50555;SDS011;36508;52.512;13.450;2022-11-20T00:20:00;19.57;;;14.93;;
50555;SDS011;36508;52.512;13.450;2022-11-20T00:22:26;16.00;;;14.27;;
50555;SDS011;36508;52.512;13.450;2022-11-20T00:24:51;17.80;;;16.10;;
50555;SDS011;36508;52.512;13.450;2022-11-20T00:27:17;19.20;;;16.10;;
50555;SDS011;36508;52.512;13.450;2022-11-20T00:29:42;21.00;;;16.87;;
50555;SDS011;36508;52.512;13.450;2022-11-20T00:32:08;18.73;;;15.27;;
50555;SDS011;36508;52.512;13.450;2022-11-20T00:34:33;15.60;;;14.03;;
50555;SDS011;36508;52.512;13.450;2022-11-20T00:36:59;20.17;;;16.10;;
50555;SDS011;36508;52.512;13.450;2022-11-20T00:39:25;19.27;;;15.00;;
50555;SDS011;36508;52.512;13.450;2022-11-20T00:41:50;15.30;;;13.40;;
50555;SDS011;36508;52.512;13.450;2022-11-20T00:44:16;16.77;;;12.10;;
50555;SDS011;36508;52.512;13.450;2022-11-20T00:46:41;17.80;;;14.47;;
50555;SDS011;36508;52.512;13.450;2022-11-20T00:49:07;18.50;;;13.90;;
50555;SDS011;36508;52.512;13.450;2022-11-20T00:51:32;14.77;;;13.27;;
50555;SDS011;36508;52.512;13.450;2022-11-20T00:53:58;14.80;;;13.10;;
50555;SDS011;36508;52.512;13.450;2022-11-20T00:56:25;15.93;;;13.37;;
50555;SDS011;36508;52.512;13.450;2022-11-20T00:58:50;16.80;;;13.00;;
50555;SDS011;36508;52.512;13.450;2022-11-20T01:03:44;17.73;;;13.50;;
50555;SDS011;36508;52.512;13.450;2022-11-20T01:06:12;14.87;;;13.27;;
50555;SDS011;36508;52.512;13.450;2022-11-20T01:08:49;14.53;;;13.03;;
50555;SDS011;36508;52.512;13.450;2022-11-20T01:11:17;14.77;;;13.20;;
50555;SDS011;36508;52.512;13.450;2022-11-20T01:13:44;17.83;;;12.53;;
50555;SDS011;36508;52.512;13.450;2022-11-20T01:16:13;13.70;;;12.37;;
50555;SDS011;36508;52.512;13.450;2022-11-20T01:18:51;12.93;;;10.73;;
50555;SDS011;36508;52.512;13.450;2022-11-20T01:21:19;15.07;;;13.10;;
50555;SDS011;36508;52.512;13.450;2022-11-20T01:23:47;15.03;;;12.87;;
50555;SDS011;36508;52.512;13.450;2022-11-20T01:26:15;16.90;;;15.10;;
50555;SDS011;36508;52.512;13.450;2022-11-20T01:28:42;13.03;;;11.73;;
50555;SDS011;36508;52.512;13.450;2022-11-20T01:34:09;15.53;;;13.80;;
50555;SDS011;36508;52.512;13.450;2022-11-20T01:36:36;18.07;;;14.23;;
50555;SDS011;36508;52.512;13.450;2022-11-20T01:39:04;19.23;;;15.20;;
50555;SDS011;36508;52.512;13.450;2022-11-20T01:41:35;16.03;;;13.80;;
50555;SDS011;36508;52.512;13.450;2022-11-20T01:44:21;15.33;;;13.23;;
50555;SDS011;36508;52.512;13.450;2022-11-20T01:47:07;19.83;;;14.30;;
50555;SDS011;36508;52.512;13.450;2022-11-20T01:49:39;16.40;;;14.27;;
50555;SDS011;36508;52.512;13.450;2022-11-20T01:54:46;16.67;;;14.67;;
50555;SDS011;36508;52.512;13.450;2022-11-20T01:57:16;21.50;;;17.20;;
50555;SDS011;36508;52.512;13.450;2022-11-20T01:59:44;19.20;;;16.10;;
50555;SDS011;36508;52.512;13.450;2022-11-20T02:02:39;24.30;;;19.70;;
50555;SDS011;36508;52.512;13.450;2022-11-20T02:08:02;18.70;;;14.07;;
50555;SDS011;36508;52.512;13.450;2022-11-20T02:10:29;15.17;;;13.50;;
50555;SDS011;36508;52.512;13.450;2022-11-20T02:12:56;22.07;;;17.70;;
50555;SDS011;36508;52.512;13.450;2022-11-20T02:15:40;17.63;;;13.50;;
50555;SDS011;36508;52.512;13.450;2022-11-20T02:18:07;17.30;;;13.10;;
50555;SDS011;36508;52.512;13.450;2022-11-20T02:20:34;13.17;;;11.97;;
50555;SDS011;36508;52.512;13.450;2022-11-20T02:23:03;12.67;;;11.17;;
50555;SDS011;36508;52.512;13.450;2022-11-20T02:25:34;14.43;;;12.93;;
50555;SDS011;36508;52.512;13.450;2022-11-20T02:28:01;19.03;;;16.00;;
50555;SDS011;36508;52.512;13.450;2022-11-20T02:30:28;16.80;;;14.00;;
50555;SDS011;36508;52.512;13.450;2022-11-20T02:32:53;18.10;;;13.90;;
50555;SDS011;36508;52.512;13.450;2022-11-20T02:37:45;17.90;;;14.27;;
50555;SDS011;36508;52.512;13.450;2022-11-20T02:40:13;18.80;;;16.97;;
50555;SDS011;36508;52.512;13.450;2022-11-20T02:42:39;18.70;;;14.10;;
50555;SDS011;36508;52.512;13.450;2022-11-20T02:45:05;15.90;;;13.83;;
50555;SDS011;36508;52.512;13.450;2022-11-20T02:47:31;15.87;;;14.17;;
50555;SDS011;36508;52.512;13.450;2022-11-20T02:49:57;18.90;;;15.10;;
50555;SDS011;36508;52.512;13.450;2022-11-20T02:52:23;16.03;;;12.47;;
50555;SDS011;36508;52.512;13.450;2022-11-20T02:54:48;19.20;;;17.20;;
50555;SDS011;36508;52.512;13.450;2022-11-20T02:57:14;18.97;;;14.77;;
50555;SDS011;36508;52.512;13.450;2022-11-20T02:59:39;17.40;;;14.70;;
50555;SDS011;36508;52.512;13.450;2022-11-20T03:02:05;15.47;;;13.60;;
50555;SDS011;36508;52.512;13.450;2022-11-20T03:04:31;20.60;;;16.03;;
50555;SDS011;36508;52.512;13.450;2022-11-20T03:06:57;15.40;;;13.37;;
50555;SDS011;36508;52.512;13.450;2022-11-20T03:09:22;23.20;;;17.17;;
50555;SDS011;36508;52.512;13.450;2022-11-20T03:11:48;17.10;;;13.67;;
50555;SDS011;36508;52.512;13.450;2022-11-20T03:14:13;24.30;;;17.70;;
50555;SDS011;36508;52.512;13.450;2022-11-20T03:16:39;20.27;;;16.47;;
50555;SDS011;36508;52.512;13.450;2022-11-20T03:19:05;17.47;;;13.30;;
50555;SDS011;36508;52.512;13.450;2022-11-20T03:21:32;18.27;;;14.50;;
50555;SDS011;36508;52.512;13.450;2022-11-20T03:23:58;16.17;;;12.80;;
50555;SDS011;36508;52.512;13.450;2022-11-20T03:26:25;17.57;;;15.13;;
50555;SDS011;36508;52.512;13.450;2022-11-20T03:28:53;16.80;;;15.10;;
50555;SDS011;36508;52.512;13.450;2022-11-20T03:31:24;19.77;;;14.93;;
50555;SDS011;36508;52.512;13.450;2022-11-20T03:33:52;32.67;;;16.37;;
50555;SDS011;36508;52.512;13.450;2022-11-20T03:36:18;16.43;;;14.17;;
50555;SDS011;36508;52.512;13.450;2022-11-20T03:38:45;16.37;;;14.70;;
50555;SDS011;36508;52.512;13.450;2022-11-20T03:41:13;17.50;;;15.03;;
50555;SDS011;36508;52.512;13.450;2022-11-20T03:43:40;17.33;;;14.53;;
50555;SDS011;36508;52.512;13.450;2022-11-20T03:46:06;13.80;;;12.40;;
50555;SDS011;36508;52.512;13.450;2022-11-20T03:48:32;15.70;;;13.33;;
50555;SDS011;36508;52.512;13.450;2022-11-20T03:51:11;16.53;;;14.83;;
50555;SDS011;36508;52.512;13.450;2022-11-20T03:53:49;15.67;;;13.97;;
50555;SDS011;36508;52.512;13.450;2022-11-20T03:56:16;16.47;;;14.57;;
50555;SDS011;36508;52.512;13.450;2022-11-20T03:58:43;15.63;;;13.63;;
50555;SDS011;36508;52.512;13.450;2022-11-20T04:01:20;16.33;;;14.13;;
50555;SDS011;36508;52.512;13.450;2022-11-20T04:03:47;21.90;;;16.47;;
50555;SDS011;36508;52.512;13.450;2022-11-20T04:06:15;13.13;;;11.77;;
50555;SDS011;36508;52.512;13.450;2022-11-20T04:08:42;17.03;;;15.23;;
50555;SDS011;36508;52.512;13.450;2022-11-20T04:11:09;19.37;;;17.07;;
50555;SDS011;36508;52.512;13.450;2022-11-20T04:13:36;16.80;;;13.60;;
50555;SDS011;36508;52.512;13.450;2022-11-20T04:16:01;15.47;;;13.87;;
50555;SDS011;36508;52.512;13.450;2022-11-20T04:18:27;17.80;;;15.40;;
50555;SDS011;36508;52.512;13.450;2022-11-20T04:20:53;13.73;;;12.30;;
50555;SDS011;36508;52.512;13.450;2022-11-20T04:23:18;15.43;;;13.90;;
50555;SDS011;36508;52.512;13.450;2022-11-20T04:25:44;17.10;;;15.30;;
50555;SDS011;36508;52.512;13.450;2022-11-20T04:28:09;16.37;;;14.63;;
50555;SDS011;36508;52.512;13.450;2022-11-20T04:30:35;17.07;;;14.50;;
50555;SDS011;36508;52.512;13.450;2022-11-20T04:33:01;18.10;;;16.20;;
50555;SDS011;36508;52.512;13.450;2022-11-20T04:35:26;16.07;;;14.47;;
50555;SDS011;36508;52.512;13.450;2022-11-20T04:37:52;15.57;;;13.80;;
50555;SDS011;36508;52.512;13.450;2022-11-20T04:40:17;15.93;;;14.00;;
50555;SDS011;36508;52.512;13.450;2022-11-20T04:42:43;18.17;;;15.37;;
50555;SDS011;36508;52.512;13.450;2022-11-20T04:45:09;16.37;;;13.87;;
50555;SDS011;36508;52.512;13.450;2022-11-20T04:47:34;16.00;;;14.17;;
50555;SDS011;36508;52.512;13.450;2022-11-20T04:50:00;19.70;;;15.07;;
50555;SDS011;36508;52.512;13.450;2022-11-20T04:52:25;19.40;;;16.87;;
50555;SDS011;36508;52.512;13.450;2022-11-20T04:54:51;24.23;;;16.00;;
50555;SDS011;36508;52.512;13.450;2022-11-20T04:57:19;17.07;;;14.30;;
50555;SDS011;36508;52.512;13.450;2022-11-20T04:59:45;17.63;;;15.60;;
50555;SDS011;36508;52.512;13.450;2022-11-20T05:02:11;16.50;;;14.80;;
50555;SDS011;36508;52.512;13.450;2022-11-20T05:04:37;17.53;;;15.33;;
50555;SDS011;36508;52.512;13.450;2022-11-20T05:07:02;16.67;;;14.00;;
50555;SDS011;36508;52.512;13.450;2022-11-20T05:09:28;20.43;;;15.70;;
50555;SDS011;36508;52.512;13.450;2022-11-20T05:11:54;15.90;;;13.63;;
50555;SDS011;36508;52.512;13.450;2022-11-20T05:14:19;16.80;;;15.00;;
50555;SDS011;36508;52.512;13.450;2022-11-20T05:16:45;18.03;;;15.93;;
50555;SDS011;36508;52.512;13.450;2022-11-20T05:19:11;22.47;;;15.97;;
50555;SDS011;36508;52.512;13.450;2022-11-20T05:21:36;17.03;;;14.60;;
50555;SDS011;36508;52.512;13.450;2022-11-20T05:24:02;15.13;;;12.80;;
50555;SDS011;36508;52.512;13.450;2022-11-20T05:26:28;16.93;;;15.13;;
50555;SDS011;36508;52.512;13.450;2022-11-20T05:28:53;16.67;;;14.77;;
50555;SDS011;36508;52.512;13.450;2022-11-20T05:31:20;18.00;;;16.10;;
50555;SDS011;36508;52.512;13.450;2022-11-20T05:33:47;18.30;;;14.33;;
50555;SDS011;36508;52.512;13.450;2022-11-20T05:36:13;18.40;;;15.13;;
50555;SDS011;36508;52.512;13.450;2022-11-20T05:38:39;16.87;;;14.57;;
50555;SDS011;36508;52.512;13.450;2022-11-20T05:41:13;18.80;;;15.37;;
50555;SDS011;36508;52.512;13.450;2022-11-20T05:43:41;18.17;;;15.47;;
50555;SDS011;36508;52.512;13.450;2022-11-20T05:46:09;17.37;;;14.97;;
50555;SDS011;36508;52.512;13.450;2022-11-20T05:48:36;16.63;;;14.80;;
50555;SDS011;36508;52.512;13.450;2022-11-20T05:51:04;18.30;;;15.97;;
50555;SDS011;36508;52.512;13.450;2022-11-20T05:53:32;16.63;;;14.93;;
50555;SDS011;36508;52.512;13.450;2022-11-20T05:56:03;17.63;;;14.67;;
50555;SDS011;36508;52.512;13.450;2022-11-20T05:58:31;15.63;;;13.73;;
50555;SDS011;36508;52.512;13.450;2022-11-20T06:01:07;19.13;;;16.90;;
50555;SDS011;36508;52.512;13.450;2022-11-20T06:03:36;18.20;;;15.23;;
50555;SDS011;36508;52.512;13.450;2022-11-20T06:06:02;15.80;;;14.17;;
50555;SDS011;36508;52.512;13.450;2022-11-20T06:08:30;17.67;;;15.80;;
50555;SDS011;36508;52.512;13.450;2022-11-20T06:10:56;22.63;;;20.27;;
50555;SDS011;36508;52.512;13.450;2022-11-20T06:13:22;20.90;;;17.13;;
50555;SDS011;36508;52.512;13.450;2022-11-20T06:15:51;18.37;;;16.47;;
50555;SDS011;36508;52.512;13.450;2022-11-20T06:18:18;16.30;;;14.60;;
50555;SDS011;36508;52.512;13.450;2022-11-20T06:20:44;19.50;;;16.03;;
50555;SDS011;36508;52.512;13.450;2022-11-20T06:23:10;16.87;;;15.07;;
50555;SDS011;36508;52.512;13.450;2022-11-20T06:25:39;16.20;;;13.57;;
50555;SDS011;36508;52.512;13.450;2022-11-20T06:28:06;17.70;;;15.80;;
50555;SDS011;36508;52.512;13.450;2022-11-20T06:30:32;18.70;;;15.13;;
50555;SDS011;36508;52.512;13.450;2022-11-20T06:32:58;16.80;;;15.13;;
50555;SDS011;36508;52.512;13.450;2022-11-20T06:35:24;18.80;;;16.23;;
50555;SDS011;36508;52.512;13.450;2022-11-20T06:37:49;17.53;;;15.67;;
50555;SDS011;36508;52.512;13.450;2022-11-20T06:40:15;16.30;;;14.57;;
50555;SDS011;36508;52.512;13.450;2022-11-20T06:42:40;16.17;;;14.30;;
50555;SDS011;36508;52.512;13.450;2022-11-20T06:45:06;20.50;;;17.57;;
50555;SDS011;36508;52.512;13.450;2022-11-20T06:47:33;19.90;;;17.23;;
50555;SDS011;36508;52.512;13.450;2022-11-20T06:49:59;17.10;;;14.87;;
50555;SDS011;36508;52.512;13.450;2022-11-20T06:52:24;17.57;;;14.83;;
50555;SDS011;36508;52.512;13.450;2022-11-20T06:54:50;18.50;;;15.43;;
50555;SDS011;36508;52.512;13.450;2022-11-20T06:57:15;23.50;;;15.30;;
50555;SDS011;36508;52.512;13.450;2022-11-20T06:59:41;16.27;;;14.50;;
50555;SDS011;36508;52.512;13.450;2022-11-20T07:02:10;15.87;;;14.13;;
50555;SDS011;36508;52.512;13.450;2022-11-20T07:04:37;18.83;;;16.03;;
50555;SDS011;36508;52.512;13.450;2022-11-20T07:07:06;17.93;;;16.07;;
50555;SDS011;36508;52.512;13.450;2022-11-20T07:09:32;17.03;;;15.13;;
50555;SDS011;36508;52.512;13.450;2022-11-20T07:11:58;15.90;;;14.30;;
50555;SDS011;36508;52.512;13.450;2022-11-20T07:14:24;18.47;;;14.10;;
50555;SDS011;36508;52.512;13.450;2022-11-20T07:16:49;15.70;;;14.10;;
50555;SDS011;36508;52.512;13.450;2022-11-20T07:19:15;23.07;;;17.20;;
50555;SDS011;36508;52.512;13.450;2022-11-20T07:21:40;18.90;;;16.83;;
50555;SDS011;36508;52.512;13.450;2022-11-20T07:24:06;16.93;;;15.10;;
50555;SDS011;36508;52.512;13.450;2022-11-20T07:29:32;17.63;;;15.30;;
50555;SDS011;36508;52.512;13.450;2022-11-20T07:31:58;17.63;;;15.13;;
50555;SDS011;36508;52.512;13.450;2022-11-20T07:34:24;17.20;;;15.20;;
50555;SDS011;36508;52.512;13.450;2022-11-20T07:36:49;19.23;;;15.70;;
50555;SDS011;36508;52.512;13.450;2022-11-20T07:39:15;20.23;;;15.20;;
50555;SDS011;36508;52.512;13.450;2022-11-20T07:41:40;21.43;;;15.50;;
50555;SDS011;36508;52.512;13.450;2022-11-20T07:44:06;16.80;;;15.10;;
50555;SDS011;36508;52.512;13.450;2022-11-20T07:46:32;15.63;;;13.97;;
50555;SDS011;36508;52.512;13.450;2022-11-20T07:48:57;17.20;;;15.37;;
50555;SDS011;36508;52.512;13.450;2022-11-20T07:51:23;18.23;;;15.60;;
50555;SDS011;36508;52.512;13.450;2022-11-20T07:53:52;21.30;;;16.77;;
50555;SDS011;36508;52.512;13.450;2022-11-20T07:56:17;17.20;;;15.40;;
50555;SDS011;36508;52.512;13.450;2022-11-20T07:58:43;17.73;;;15.70;;
50555;SDS011;36508;52.512;13.450;2022-11-20T08:01:09;17.77;;;15.90;;
50555;SDS011;36508;52.512;13.450;2022-11-20T08:03:34;15.87;;;13.87;;
50555;SDS011;36508;52.512;13.450;2022-11-20T08:06:02;16.40;;;14.80;;
50555;SDS011;36508;52.512;13.450;2022-11-20T08:08:29;21.17;;;17.00;;
50555;SDS011;36508;52.512;13.450;2022-11-20T08:14:01;17.50;;;14.83;;
50555;SDS011;36508;52.512;13.450;2022-11-20T08:16:42;19.10;;;17.13;;
50555;SDS011;36508;52.512;13.450;2022-11-20T08:19:09;19.00;;;16.57;;
50555;SDS011;36508;52.512;13.450;2022-11-20T08:21:35;18.67;;;16.80;;
50555;SDS011;36508;52.512;13.450;2022-11-20T08:24:01;19.17;;;17.03;;
50555;SDS011;36508;52.512;13.450;2022-11-20T08:26:26;19.87;;;16.47;;
50555;SDS011;36508;52.512;13.450;2022-11-20T08:28:55;24.40;;;16.70;;
50555;SDS011;36508;52.512;13.450;2022-11-20T08:31:22;20.53;;;16.53;;
50555;SDS011;36508;52.512;13.450;2022-11-20T08:33:49;20.97;;;15.77;;
50555;SDS011;36508;52.512;13.450;2022-11-20T08:36:15;17.13;;;15.47;;
50555;SDS011;36508;52.512;13.450;2022-11-20T08:38:42;18.63;;;16.73;;
50555;SDS011;36508;52.512;13.450;2022-11-20T08:41:11;16.70;;;15.00;;
50555;SDS011;36508;52.512;13.450;2022-11-20T08:43:49;21.03;;;16.40;;
50555;SDS011;36508;52.512;13.450;2022-11-20T08:46:15;20.20;;;17.30;;
50555;SDS011;36508;52.512;13.450;2022-11-20T08:48:41;18.30;;;16.20;;
50555;SDS011;36508;52.512;13.450;2022-11-20T08:51:07;21.57;;;17.67;;
50555;SDS011;36508;52.512;13.450;2022-11-20T08:53:33;16.60;;;13.13;;
50555;SDS011;36508;52.512;13.450;2022-11-20T08:55:59;18.80;;;13.10;;
50555;SDS011;36508;52.512;13.450;2022-11-20T08:58:25;16.03;;;13.73;;
50555;SDS011;36508;52.512;13.450;2022-11-20T09:00:51;21.77;;;16.57;;
50555;SDS011;36508;52.512;13.450;2022-11-20T09:03:17;20.97;;;16.50;;
50555;SDS011;36508;52.512;13.450;2022-11-20T09:05:43;20.77;;;15.87;;
50555;SDS011;36508;52.512;13.450;2022-11-20T09:08:08;21.20;;;17.60;;
50555;SDS011;36508;52.512;13.450;2022-11-20T09:10:34;19.43;;;17.33;;
50555;SDS011;36508;52.512;13.450;2022-11-20T09:13:00;19.57;;;16.13;;
50555;SDS011;36508;52.512;13.450;2022-11-20T09:15:26;19.67;;;15.53;;
50555;SDS011;36508;52.512;13.450;2022-11-20T09:17:52;23.90;;;19.43;;
50555;SDS011;36508;52.512;13.450;2022-11-20T09:20:36;21.87;;;17.73;;
50555;SDS011;36508;52.512;13.450;2022-11-20T09:23:02;21.70;;;16.80;;
50555;SDS011;36508;52.512;13.450;2022-11-20T09:25:27;19.80;;;15.80;;
50555;SDS011;36508;52.512;13.450;2022-11-20T09:27:59;22.13;;;17.70;;
50555;SDS011;36508;52.512;13.450;2022-11-20T09:33:43;19.17;;;17.27;;
50555;SDS011;36508;52.512;13.450;2022-11-20T09:36:08;19.27;;;17.20;;
50555;SDS011;36508;52.512;13.450;2022-11-20T09:38:34;19.60;;;15.90;;
50555;SDS011;36508;52.512;13.450;2022-11-20T09:41:03;18.40;;;15.87;;
50555;SDS011;36508;52.512;13.450;2022-11-20T09:43:32;17.83;;;15.57;;
50555;SDS011;36508;52.512;13.450;2022-11-20T09:54:37;16.40;;;12.63;;
50555;SDS011;36508;52.512;13.450;2022-11-20T09:57:10;18.73;;;16.83;;
50555;SDS011;36508;52.512;13.450;2022-11-20T09:59:44;20.97;;;17.40;;
50555;SDS011;36508;52.512;13.450;2022-11-20T10:02:42;17.30;;;13.73;;
50555;SDS011;36508;52.512;13.450;2022-11-20T10:08:04;16.80;;;15.10;;
50555;SDS011;36508;52.512;13.450;2022-11-20T10:10:42;19.00;;;16.20;;
50555;SDS011;36508;52.512;13.450;2022-11-20T10:13:17;16.13;;;14.50;;
50555;SDS011;36508;52.512;13.450;2022-11-20T10:21:41;17.87;;;16.00;;
50555;SDS011;36508;52.512;13.450;2022-11-20T10:30:11;19.20;;;15.80;;
50555;SDS011;36508;52.512;13.450;2022-11-20T10:32:39;16.60;;;15.03;;
50555;SDS011;36508;52.512;13.450;2022-11-20T10:35:15;23.23;;;14.53;;
50555;SDS011;36508;52.512;13.450;2022-11-20T10:37:58;19.70;;;15.33;;
50555;SDS011;36508;52.512;13.450;2022-11-20T10:40:41;19.97;;;15.77;;
50555;SDS011;36508;52.512;13.450;2022-11-20T10:43:17;16.20;;;13.97;;
50555;SDS011;36508;52.512;13.450;2022-11-20T10:45:58;18.47;;;16.47;;
50555;SDS011;36508;52.512;13.450;2022-11-20T10:48:38;16.83;;;14.17;;
50555;SDS011;36508;52.512;13.450;2022-11-20T10:53:56;13.73;;;12.30;;
50555;SDS011;36508;52.512;13.450;2022-11-20T11:02:17;17.50;;;15.43;;
50555;SDS011;36508;52.512;13.450;2022-11-20T11:04:51;20.97;;;17.87;;
50555;SDS011;36508;52.512;13.450;2022-11-20T11:07:25;17.47;;;15.63;;
50555;SDS011;36508;52.512;13.450;2022-11-20T11:09:56;19.87;;;15.77;;
50555;SDS011;36508;52.512;13.450;2022-11-20T11:12:24;17.77;;;13.87;;
50555;SDS011;36508;52.512;13.450;2022-11-20T11:14:51;22.13;;;17.17;;
50555;SDS011;36508;52.512;13.450;2022-11-20T11:17:21;17.93;;;15.70;;
50555;SDS011;36508;52.512;13.450;2022-11-20T11:22:24;14.10;;;11.33;;
50555;SDS011;36508;52.512;13.450;2022-11-20T11:24:53;17.77;;;16.07;;
50555;SDS011;36508;52.512;13.450;2022-11-20T11:27:19;17.27;;;15.63;;
50555;SDS011;36508;52.512;13.450;2022-11-20T11:29:47;17.83;;;14.90;;
50555;SDS011;36508;52.512;13.450;2022-11-20T11:32:22;17.93;;;14.87;;
50555;SDS011;36508;52.512;13.450;2022-11-20T11:35:04;16.43;;;14.73;;
50555;SDS011;36508;52.512;13.450;2022-11-20T11:37:37;16.67;;;13.57;;
50555;SDS011;36508;52.512;13.450;2022-11-20T11:40:05;17.70;;;16.02;;
50555;SDS011;36508;52.512;13.450;2022-11-20T11:42:34;19.17;;;14.03;;
50555;SDS011;36508;52.512;13.450;2022-11-20T11:45:06;17.40;;;15.70;;
50555;SDS011;36508;52.512;13.450;2022-11-20T11:47:36;18.20;;;16.17;;
50555;SDS011;36508;52.512;13.450;2022-11-20T11:55:09;20.43;;;14.83;;
50555;SDS011;36508;52.512;13.450;2022-11-20T11:57:57;19.97;;;15.60;;
50555;SDS011;36508;52.512;13.450;2022-11-20T12:00:27;14.10;;;12.57;;
50555;SDS011;36508;52.512;13.450;2022-11-20T12:03:08;16.83;;;15.03;;
50555;SDS011;36508;52.512;13.450;2022-11-20T12:05:43;15.30;;;13.80;;
50555;SDS011;36508;52.512;13.450;2022-11-20T12:08:26;18.50;;;16.50;;
50555;SDS011;36508;52.512;13.450;2022-11-20T12:13:54;16.20;;;14.60;;
50555;SDS011;36508;52.512;13.450;2022-11-20T12:16:41;17.63;;;14.93;;
50555;SDS011;36508;52.512;13.450;2022-11-20T12:19:11;15.80;;;14.20;;
50555;SDS011;36508;52.512;13.450;2022-11-20T12:24:46;18.20;;;15.80;;
50555;SDS011;36508;52.512;13.450;2022-11-20T12:30:33;19.20;;;16.33;;
50555;SDS011;36508;52.512;13.450;2022-11-20T12:33:24;18.70;;;14.97;;
50555;SDS011;36508;52.512;13.450;2022-11-20T12:36:01;20.33;;;15.00;;
50555;SDS011;36508;52.512;13.450;2022-11-20T12:47:41;17.70;;;13.53;;
50555;SDS011;36508;52.512;13.450;2022-11-20T12:55:55;17.43;;;15.23;;
50555;SDS011;36508;52.512;13.450;2022-11-20T13:04:41;13.90;;;12.40;;
50555;SDS011;36508;52.512;13.450;2022-11-20T13:07:02;13.93;;;12.53;;
50555;SDS011;36508;52.512;13.450;2022-11-20T13:09:30;13.30;;;12.00;;
50555;SDS011;36508;52.512;13.450;2022-11-20T13:12:06;13.10;;;11.50;;
50555;SDS011;36508;52.512;13.450;2022-11-20T13:14:48;12.67;;;9.80;;
50555;SDS011;36508;52.512;13.450;2022-11-20T13:17:34;10.63;;;8.77;;
50555;SDS011;36508;52.512;13.450;2022-11-20T13:20:13;9.57;;;7.67;;
50555;SDS011;36508;52.512;13.450;2022-11-20T13:22:51;11.40;;;8.67;;
50555;SDS011;36508;52.512;13.450;2022-11-20T13:25:26;12.10;;;10.83;;
50555;SDS011;36508;52.512;13.450;2022-11-20T13:27:57;13.13;;;10.40;;
50555;SDS011;36508;52.512;13.450;2022-11-20T13:30:25;10.43;;;9.33;;
50555;SDS011;36508;52.512;13.450;2022-11-20T13:35:25;12.40;;;11.07;;
50555;SDS011;36508;52.512;13.450;2022-11-20T13:40:30;9.17;;;8.17;;
50555;SDS011;36508;52.512;13.450;2022-11-20T13:45:27;10.80;;;9.80;;
50555;SDS011;36508;52.512;13.450;2022-11-20T13:47:56;11.30;;;8.63;;
50555;SDS011;36508;52.512;13.450;2022-11-20T13:51:09;9.60;;;8.70;;
50555;SDS011;36508;52.512;13.450;2022-11-20T13:53:44;11.30;;;10.17;;
50555;SDS011;36508;52.512;13.450;2022-11-20T13:59:23;10.47;;;9.47;;
50555;SDS011;36508;52.512;13.450;2022-11-20T14:02:13;12.00;;;9.00;;
50555;SDS011;36508;52.512;13.450;2022-11-20T14:04:48;7.73;;;6.90;;
50555;SDS011;36508;52.512;13.450;2022-11-20T14:07:20;9.03;;;8.13;;
50555;SDS011;36508;52.512;13.450;2022-11-20T14:09:51;9.77;;;7.60;;
50555;SDS011;36508;52.512;13.450;2022-11-20T14:12:28;9.63;;;8.73;;
50555;SDS011;36508;52.512;13.450;2022-11-20T14:14:55;10.50;;;9.23;;
50555;SDS011;36508;52.512;13.450;2022-11-20T14:20:02;9.90;;;8.40;;
50555;SDS011;36508;52.512;13.450;2022-11-20T14:22:31;9.77;;;8.90;;
50555;SDS011;36508;52.512;13.450;2022-11-20T14:25:01;11.77;;;8.60;;
50555;SDS011;36508;52.512;13.450;2022-11-20T14:27:37;11.13;;;10.03;;
50555;SDS011;36508;52.512;13.450;2022-11-20T14:30:06;13.40;;;11.17;;
50555;SDS011;36508;52.512;13.450;2022-11-20T14:32:41;10.03;;;9.13;;
50555;SDS011;36508;52.512;13.450;2022-11-20T14:35:09;8.73;;;7.37;;
50555;SDS011;36508;52.512;13.450;2022-11-20T14:38:02;9.67;;;8.00;;
50555;SDS011;36508;52.512;13.450;2022-11-20T14:43:02;13.70;;;7.90;;
50555;SDS011;36508;52.512;13.450;2022-11-20T14:45:43;13.07;;;11.77;;
50555;SDS011;36508;52.512;13.450;2022-11-20T14:48:12;13.50;;;9.50;;
50555;SDS011;36508;52.512;13.450;2022-11-20T14:50:39;10.53;;;9.53;;
50555;SDS011;36508;52.512;13.450;2022-11-20T14:53:04;12.20;;;10.73;;
50555;SDS011;36508;52.512;13.450;2022-11-20T14:55:34;19.90;;;13.07;;
50555;SDS011;36508;52.512;13.450;2022-11-20T14:58:05;11.10;;;9.70;;
50555;SDS011;36508;52.512;13.450;2022-11-20T15:00:52;16.63;;;10.90;;
50555;SDS011;36508;52.512;13.450;2022-11-20T15:03:22;17.57;;;12.17;;
50555;SDS011;36508;52.512;13.450;2022-11-20T15:05:55;10.83;;;9.70;;
50555;SDS011;36508;52.512;13.450;2022-11-20T15:08:20;12.33;;;10.20;;
50555;SDS011;36508;52.512;13.450;2022-11-20T15:10:47;11.47;;;10.23;;
50555;SDS011;36508;52.512;13.450;2022-11-20T15:13:22;13.60;;;12.17;;
50555;SDS011;36508;52.512;13.450;2022-11-20T15:16:04;13.60;;;10.97;;
50555;SDS011;36508;52.512;13.450;2022-11-20T15:18:40;10.30;;;8.80;;
50555;SDS011;36508;52.512;13.450;2022-11-20T15:21:10;11.33;;;10.33;;
50555;SDS011;36508;52.512;13.450;2022-11-20T15:23:37;15.77;;;13.23;;
50555;SDS011;36508;52.512;13.450;2022-11-20T15:26:06;13.77;;;11.43;;
50555;SDS011;36508;52.512;13.450;2022-11-20T15:28:37;11.23;;;10.13;;
50555;SDS011;36508;52.512;13.450;2022-11-20T15:31:05;11.90;;;10.70;;
50555;SDS011;36508;52.512;13.450;2022-11-20T15:33:31;9.37;;;8.27;;
50555;SDS011;36508;52.512;13.450;2022-11-20T15:35:58;11.07;;;9.90;;
50555;SDS011;36508;52.512;13.450;2022-11-20T15:38:24;15.10;;;12.93;;
50555;SDS011;36508;52.512;13.450;2022-11-20T15:40:50;13.20;;;11.80;;
50555;SDS011;36508;52.512;13.450;2022-11-20T15:43:16;10.40;;;9.40;;
50555;SDS011;36508;52.512;13.450;2022-11-20T15:45:45;16.23;;;11.97;;
50555;SDS011;36508;52.512;13.450;2022-11-20T15:48:18;23.73;;;14.10;;
50555;SDS011;36508;52.512;13.450;2022-11-20T15:50:50;12.63;;;11.40;;
50555;SDS011;36508;52.512;13.450;2022-11-20T15:53:32;12.30;;;11.20;;
50555;SDS011;36508;52.512;13.450;2022-11-20T15:55:58;11.87;;;10.60;;
50555;SDS011;36508;52.512;13.450;2022-11-20T15:58:23;11.37;;;10.30;;
50555;SDS011;36508;52.512;13.450;2022-11-20T16:00:49;10.77;;;9.77;;
50555;SDS011;36508;52.512;13.450;2022-11-20T16:03:15;12.47;;;11.27;;
50555;SDS011;36508;52.512;13.450;2022-11-20T16:05:41;18.13;;;12.17;;
50555;SDS011;36508;52.512;13.450;2022-11-20T16:08:07;11.00;;;9.90;;
50555;SDS011;36508;52.512;13.450;2022-11-20T16:10:33;17.43;;;11.00;;